D61 weather

Towner Municipal Airport
Towner, North Dakota, United States

Public forecast

Using degrees Fahrenheit for public forecast. Weather courtesy of forecast.io.

Closest aviation weather report (METAR) to Towner Municipal Airport

Closest report is Rugby Municipal Airport, 14.8 nm (27.4 km) E. Retrieved 2020/04/08 19:15 UTC (10 minutes ago):

KRUG 081915Z AUTO 31022KT 10SM FEW050 FEW075 01/M02 A2995 RMK AO2

Closest aviation forecast (TAF) to Towner Municipal Airport

Closest forecast is Minot International Airport, 36.0 nm (66.6 km) W. Retrieved 2020/04/08 18:42 UTC (43 minutes ago):

TAF KMOT 081739Z 0818/0918 30025G40KT P6SM VCSH BKN050 FM090100 31020G30KT P6SM SCT070